sensor_id;sensor_type;location;lat;lon;timestamp;temperature;humidity
19037;DHT22;9651;49.138;8.900;2023-05-10T00:00:55;15.00;99.90
19037;DHT22;9651;49.138;8.900;2023-05-10T00:04:57;15.00;99.90
19037;DHT22;9651;49.138;8.900;2023-05-10T00:08:59;15.00;99.90
19037;DHT22;9651;49.138;8.900;2023-05-10T00:13:03;15.00;99.90
19037;DHT22;9651;49.138;8.900;2023-05-10T00:17:05;14.90;99.90
19037;DHT22;9651;49.138;8.900;2023-05-10T00:21:06;14.80;99.90
19037;DHT22;9651;49.138;8.900;2023-05-10T00:25:09;14.80;99.90
19037;DHT22;9651;49.138;8.900;2023-05-10T00:29:12;14.80;99.90
19037;DHT22;9651;49.138;8.900;2023-05-10T00:33:14;14.80;99.90
19037;DHT22;9651;49.138;8.900;2023-05-10T00:37:16;14.70;99.90
19037;DHT22;9651;49.138;8.900;2023-05-10T00:41:18;14.60;99.90
19037;DHT22;9651;49.138;8.900;2023-05-10T00:45:23;14.60;99.90
19037;DHT22;9651;49.138;8.900;2023-05-10T00:49:25;14.50;99.90
19037;DHT22;9651;49.138;8.900;2023-05-10T00:53:28;14.50;99.90
19037;DHT22;9651;49.138;8.900;2023-05-10T00:57:30;14.40;99.90
19037;DHT22;9651;49.138;8.900;2023-05-10T01:01:33;14.50;99.90
19037;DHT22;9651;49.138;8.900;2023-05-10T01:05:36;14.50;99.90
19037;DHT22;9651;49.138;8.900;2023-05-10T01:09:38;14.40;99.90
19037;DHT22;9651;49.138;8.900;2023-05-10T01:13:42;14.50;99.90
19037;DHT22;9651;49.138;8.900;2023-05-10T01:17:47;14.50;99.90
19037;DHT22;9651;49.138;8.900;2023-05-10T01:21:56;14.40;99.90
19037;DHT22;9651;49.138;8.900;2023-05-10T01:26:18;14.40;99.90
19037;DHT22;9651;49.138;8.900;2023-05-10T01:30:47;14.30;99.90
19037;DHT22;9651;49.138;8.900;2023-05-10T01:34:59;14.20;99.90
19037;DHT22;9651;49.138;8.900;2023-05-10T01:39:07;14.20;99.90
19037;DHT22;9651;49.138;8.900;2023-05-10T01:43:19;14.20;99.90
19037;DHT22;9651;49.138;8.900;2023-05-10T01:47:31;14.10;99.90
19037;DHT22;9651;49.138;8.900;2023-05-10T01:51:38;14.00;99.90
19037;DHT22;9651;49.138;8.900;2023-05-10T01:55:45;14.00;99.90
19037;DHT22;9651;49.138;8.900;2023-05-10T01:59:50;14.00;99.90
19037;DHT22;9651;49.138;8.900;2023-05-10T02:03:54;14.00;99.90
19037;DHT22;9651;49.138;8.900;2023-05-10T02:07:59;14.00;99.90
19037;DHT22;9651;49.138;8.900;2023-05-10T02:12:04;13.90;99.90
19037;DHT22;9651;49.138;8.900;2023-05-10T02:16:07;13.90;99.90
19037;DHT22;9651;49.138;8.900;2023-05-10T02:20:10;13.90;99.90
19037;DHT22;9651;49.138;8.900;2023-05-10T02:24:15;13.90;99.90
19037;DHT22;9651;49.138;8.900;2023-05-10T02:28:17;13.90;99.90
19037;DHT22;9651;49.138;8.900;2023-05-10T02:32:21;13.90;99.90
19037;DHT22;9651;49.138;8.900;2023-05-10T02:36:25;14.00;99.90
19037;DHT22;9651;49.138;8.900;2023-05-10T02:40:29;14.00;99.90
19037;DHT22;9651;49.138;8.900;2023-05-10T02:44:32;14.00;99.90
19037;DHT22;9651;49.138;8.900;2023-05-10T02:48:35;14.00;99.90
19037;DHT22;9651;49.138;8.900;2023-05-10T02:52:40;14.00;99.90
19037;DHT22;9651;49.138;8.900;2023-05-10T02:56:49;14.00;99.90
19037;DHT22;9651;49.138;8.900;2023-05-10T03:00:52;14.10;99.90
19037;DHT22;9651;49.138;8.900;2023-05-10T03:04:54;14.00;99.90
19037;DHT22;9651;49.138;8.900;2023-05-10T03:08:56;14.10;99.90
19037;DHT22;9651;49.138;8.900;2023-05-10T03:13:07;14.10;99.90
19037;DHT22;9651;49.138;8.900;2023-05-10T03:17:28;14.10;99.90
19037;DHT22;9651;49.138;8.900;2023-05-10T03:21:33;14.10;99.90
19037;DHT22;9651;49.138;8.900;2023-05-10T03:25:37;14.20;99.90
19037;DHT22;9651;49.138;8.900;2023-05-10T03:29:42;14.20;99.90
19037;DHT22;9651;49.138;8.900;2023-05-10T03:33:46;14.20;99.90
19037;DHT22;9651;49.138;8.900;2023-05-10T03:37:53;14.20;99.90
19037;DHT22;9651;49.138;8.900;2023-05-10T03:41:55;14.20;99.90
19037;DHT22;9651;49.138;8.900;2023-05-10T03:45:58;14.20;99.90
19037;DHT22;9651;49.138;8.900;2023-05-10T03:50:00;14.10;99.90
19037;DHT22;9651;49.138;8.900;2023-05-10T03:54:03;14.10;99.90
19037;DHT22;9651;49.138;8.900;2023-05-10T03:58:05;14.10;99.90
19037;DHT22;9651;49.138;8.900;2023-05-10T04:02:09;14.20;99.90
19037;DHT22;9651;49.138;8.900;2023-05-10T04:06:11;14.20;99.90
19037;DHT22;9651;49.138;8.900;2023-05-10T04:10:13;14.10;99.90
19037;DHT22;9651;49.138;8.900;2023-05-10T04:14:16;14.10;99.90
19037;DHT22;9651;49.138;8.900;2023-05-10T04:18:19;14.00;99.90
19037;DHT22;9651;49.138;8.900;2023-05-10T04:22:21;14.10;99.90
19037;DHT22;9651;49.138;8.900;2023-05-10T04:26:23;14.10;99.90
19037;DHT22;9651;49.138;8.900;2023-05-10T04:30:25;14.10;99.90
19037;DHT22;9651;49.138;8.900;2023-05-10T04:34:30;14.20;99.90
19037;DHT22;9651;49.138;8.900;2023-05-10T04:38:34;14.20;99.90
19037;DHT22;9651;49.138;8.900;2023-05-10T04:42:36;14.20;99.90
19037;DHT22;9651;49.138;8.900;2023-05-10T04:46:38;14.10;99.90
19037;DHT22;9651;49.138;8.900;2023-05-10T04:50:41;14.10;99.90
19037;DHT22;9651;49.138;8.900;2023-05-10T04:54:43;14.10;99.90
19037;DHT22;9651;49.138;8.900;2023-05-10T04:58:45;14.10;99.90
19037;DHT22;9651;49.138;8.900;2023-05-10T05:02:47;14.20;99.90
19037;DHT22;9651;49.138;8.900;2023-05-10T05:06:50;14.20;99.90
19037;DHT22;9651;49.138;8.900;2023-05-10T05:10:52;14.20;99.90
19037;DHT22;9651;49.138;8.900;2023-05-10T05:14:53;14.20;99.90
19037;DHT22;9651;49.138;8.900;2023-05-10T05:18:55;14.20;99.90
19037;DHT22;9651;49.138;8.900;2023-05-10T05:22:59;14.20;99.90
19037;DHT22;9651;49.138;8.900;2023-05-10T05:27:00;14.20;99.90
19037;DHT22;9651;49.138;8.900;2023-05-10T05:31:02;14.30;99.90
19037;DHT22;9651;49.138;8.900;2023-05-10T05:35:05;14.40;99.90
19037;DHT22;9651;49.138;8.900;2023-05-10T05:39:08;14.40;99.90
19037;DHT22;9651;49.138;8.900;2023-05-10T05:43:10;14.50;99.90
19037;DHT22;9651;49.138;8.900;2023-05-10T05:47:12;14.60;99.90
19037;DHT22;9651;49.138;8.900;2023-05-10T05:51:14;14.60;99.90
19037;DHT22;9651;49.138;8.900;2023-05-10T05:55:17;14.70;99.90
19037;DHT22;9651;49.138;8.900;2023-05-10T05:59:19;14.80;99.90
19037;DHT22;9651;49.138;8.900;2023-05-10T06:03:21;15.00;99.90
19037;DHT22;9651;49.138;8.900;2023-05-10T06:07:23;15.10;99.90
19037;DHT22;9651;49.138;8.900;2023-05-10T06:11:27;15.20;99.90
19037;DHT22;9651;49.138;8.900;2023-05-10T06:15:29;15.40;99.90
19037;DHT22;9651;49.138;8.900;2023-05-10T06:19:31;15.40;99.90
19037;DHT22;9651;49.138;8.900;2023-05-10T06:23:32;15.40;99.90
19037;DHT22;9651;49.138;8.900;2023-05-10T06:27:36;15.40;99.90
19037;DHT22;9651;49.138;8.900;2023-05-10T06:31:37;15.40;99.90
19037;DHT22;9651;49.138;8.900;2023-05-10T06:35:40;15.50;99.90
19037;DHT22;9651;49.138;8.900;2023-05-10T06:39:42;15.40;99.90
19037;DHT22;9651;49.138;8.900;2023-05-10T06:43:45;15.40;99.90
19037;DHT22;9651;49.138;8.900;2023-05-10T06:47:47;15.30;99.90
19037;DHT22;9651;49.138;8.900;2023-05-10T06:51:49;15.40;99.90
19037;DHT22;9651;49.138;8.900;2023-05-10T06:55:51;15.50;99.90
19037;DHT22;9651;49.138;8.900;2023-05-10T06:59:54;15.60;99.90
19037;DHT22;9651;49.138;8.900;2023-05-10T07:03:57;15.60;99.90
19037;DHT22;9651;49.138;8.900;2023-05-10T07:07:59;15.70;99.90
19037;DHT22;9651;49.138;8.900;2023-05-10T07:12:01;15.60;99.90
19037;DHT22;9651;49.138;8.900;2023-05-10T07:16:05;15.50;99.90
19037;DHT22;9651;49.138;8.900;2023-05-10T07:20:08;15.40;99.90
19037;DHT22;9651;49.138;8.900;2023-05-10T07:24:10;15.50;99.90
19037;DHT22;9651;49.138;8.900;2023-05-10T07:28:13;15.70;99.90
19037;DHT22;9651;49.138;8.900;2023-05-10T07:32:16;16.00;99.90
19037;DHT22;9651;49.138;8.900;2023-05-10T07:36:18;16.10;99.90
19037;DHT22;9651;49.138;8.900;2023-05-10T07:40:20;16.10;99.90
19037;DHT22;9651;49.138;8.900;2023-05-10T07:44:22;16.40;99.90
19037;DHT22;9651;49.138;8.900;2023-05-10T07:48:26;16.60;99.90
19037;DHT22;9651;49.138;8.900;2023-05-10T07:52:28;16.70;99.90
19037;DHT22;9651;49.138;8.900;2023-05-10T07:56:31;16.70;99.90
19037;DHT22;9651;49.138;8.900;2023-05-10T08:00:34;16.90;99.90
19037;DHT22;9651;49.138;8.900;2023-05-10T08:04:37;17.10;99.90
19037;DHT22;9651;49.138;8.900;2023-05-10T08:08:38;16.90;99.90
19037;DHT22;9651;49.138;8.900;2023-05-10T08:12:40;17.10;99.90
19037;DHT22;9651;49.138;8.900;2023-05-10T08:16:42;17.10;99.90
19037;DHT22;9651;49.138;8.900;2023-05-10T08:20:45;17.30;99.90
19037;DHT22;9651;49.138;8.900;2023-05-10T08:24:47;17.40;99.90
19037;DHT22;9651;49.138;8.900;2023-05-10T08:28:49;17.60;99.90
19037;DHT22;9651;49.138;8.900;2023-05-10T08:32:51;17.50;99.90
19037;DHT22;9651;49.138;8.900;2023-05-10T08:36:54;17.40;99.90
19037;DHT22;9651;49.138;8.900;2023-05-10T08:40:56;17.30;99.90
19037;DHT22;9651;49.138;8.900;2023-05-10T08:45:00;17.30;99.90
19037;DHT22;9651;49.138;8.900;2023-05-10T08:49:04;17.70;99.90
19037;DHT22;9651;49.138;8.900;2023-05-10T08:53:10;18.20;99.90
19037;DHT22;9651;49.138;8.900;2023-05-10T08:57:12;18.80;99.90
19037;DHT22;9651;49.138;8.900;2023-05-10T09:01:16;19.30;99.90
19037;DHT22;9651;49.138;8.900;2023-05-10T09:05:18;19.60;99.90
19037;DHT22;9651;49.138;8.900;2023-05-10T09:09:21;19.60;99.90
19037;DHT22;9651;49.138;8.900;2023-05-10T09:13:24;19.40;99.90
19037;DHT22;9651;49.138;8.900;2023-05-10T09:17:27;19.00;99.90
19037;DHT22;9651;49.138;8.900;2023-05-10T09:21:30;19.00;99.90
19037;DHT22;9651;49.138;8.900;2023-05-10T09:25:34;19.80;99.90
19037;DHT22;9651;49.138;8.900;2023-05-10T09:29:39;20.30;99.90
19037;DHT22;9651;49.138;8.900;2023-05-10T09:33:44;20.20;99.90
19037;DHT22;9651;49.138;8.900;2023-05-10T09:37:47;20.10;99.90
19037;DHT22;9651;49.138;8.900;2023-05-10T09:41:50;20.00;99.90
19037;DHT22;9651;49.138;8.900;2023-05-10T09:45:53;19.60;99.90
19037;DHT22;9651;49.138;8.900;2023-05-10T09:49:55;19.10;99.90
19037;DHT22;9651;49.138;8.900;2023-05-10T09:54:10;18.90;99.90
19037;DHT22;9651;49.138;8.900;2023-05-10T09:58:14;19.10;99.90
19037;DHT22;9651;49.138;8.900;2023-05-10T10:02:16;19.20;99.90
19037;DHT22;9651;49.138;8.900;2023-05-10T10:06:19;19.30;99.90
19037;DHT22;9651;49.138;8.900;2023-05-10T10:10:21;19.50;99.90
19037;DHT22;9651;49.138;8.900;2023-05-10T10:14:24;19.60;99.90
19037;DHT22;9651;49.138;8.900;2023-05-10T10:18:27;19.60;99.90
19037;DHT22;9651;49.138;8.900;2023-05-10T10:22:29;19.50;99.90
19037;DHT22;9651;49.138;8.900;2023-05-10T10:26:31;19.30;99.90
19037;DHT22;9651;49.138;8.900;2023-05-10T10:30:40;19.20;99.90
19037;DHT22;9651;49.138;8.900;2023-05-10T10:34:44;19.30;99.90
19037;DHT22;9651;49.138;8.900;2023-05-10T10:38:56;19.80;99.90
19037;DHT22;9651;49.138;8.900;2023-05-10T10:43:22;20.60;99.90
19037;DHT22;9651;49.138;8.900;2023-05-10T10:47:28;20.40;99.90
19037;DHT22;9651;49.138;8.900;2023-05-10T10:51:36;19.50;99.90
19037;DHT22;9651;49.138;8.900;2023-05-10T10:55:46;19.10;99.90
19037;DHT22;9651;49.138;8.900;2023-05-10T10:59:49;19.00;99.90
19037;DHT22;9651;49.138;8.900;2023-05-10T11:04:19;18.90;99.90
19037;DHT22;9651;49.138;8.900;2023-05-10T11:08:27;18.40;99.90
19037;DHT22;9651;49.138;8.900;2023-05-10T11:12:29;18.40;99.90
19037;DHT22;9651;49.138;8.900;2023-05-10T11:16:41;18.60;99.90
19037;DHT22;9651;49.138;8.900;2023-05-10T11:20:50;18.80;99.90
19037;DHT22;9651;49.138;8.900;2023-05-10T11:24:56;19.30;99.90
19037;DHT22;9651;49.138;8.900;2023-05-10T11:28:58;19.70;99.90
19037;DHT22;9651;49.138;8.900;2023-05-10T11:33:01;19.90;99.90
19037;DHT22;9651;49.138;8.900;2023-05-10T11:37:04;19.60;99.90
19037;DHT22;9651;49.138;8.900;2023-05-10T11:41:08;19.60;99.90
19037;DHT22;9651;49.138;8.900;2023-05-10T11:45:11;20.00;99.90
19037;DHT22;9651;49.138;8.900;2023-05-10T11:49:13;19.80;99.90
19037;DHT22;9651;49.138;8.900;2023-05-10T11:53:17;20.10;99.90
19037;DHT22;9651;49.138;8.900;2023-05-10T11:57:26;20.70;99.90
19037;DHT22;9651;49.138;8.900;2023-05-10T12:01:29;20.30;99.90
19037;DHT22;9651;49.138;8.900;2023-05-10T12:05:32;20.00;99.90
19037;DHT22;9651;49.138;8.900;2023-05-10T12:09:36;19.80;99.90
19037;DHT22;9651;49.138;8.900;2023-05-10T12:13:38;20.20;99.90
19037;DHT22;9651;49.138;8.900;2023-05-10T12:17:41;20.60;99.90
19037;DHT22;9651;49.138;8.900;2023-05-10T12:21:45;21.30;99.90
19037;DHT22;9651;49.138;8.900;2023-05-10T12:25:48;21.70;99.90
19037;DHT22;9651;49.138;8.900;2023-05-10T12:29:50;21.70;99.90
19037;DHT22;9651;49.138;8.900;2023-05-10T12:33:52;20.90;99.90
19037;DHT22;9651;49.138;8.900;2023-05-10T12:37:54;20.40;99.90
19037;DHT22;9651;49.138;8.900;2023-05-10T12:41:57;20.70;99.90
19037;DHT22;9651;49.138;8.900;2023-05-10T12:46:04;21.60;99.90
19037;DHT22;9651;49.138;8.900;2023-05-10T12:50:07;22.40;99.90
19037;DHT22;9651;49.138;8.900;2023-05-10T12:54:09;22.80;99.90
19037;DHT22;9651;49.138;8.900;2023-05-10T12:58:12;22.90;99.90
19037;DHT22;9651;49.138;8.900;2023-05-10T13:02:15;22.90;99.90
19037;DHT22;9651;49.138;8.900;2023-05-10T13:06:18;23.30;99.90
19037;DHT22;9651;49.138;8.900;2023-05-10T13:10:20;23.70;99.90
19037;DHT22;9651;49.138;8.900;2023-05-10T13:14:25;23.90;99.90
19037;DHT22;9651;49.138;8.900;2023-05-10T13:18:27;23.90;99.90
19037;DHT22;9651;49.138;8.900;2023-05-10T13:22:29;24.40;99.90
19037;DHT22;9651;49.138;8.900;2023-05-10T13:26:31;24.70;99.90
19037;DHT22;9651;49.138;8.900;2023-05-10T13:30:34;24.50;99.90
19037;DHT22;9651;49.138;8.900;2023-05-10T13:34:36;24.70;99.90
19037;DHT22;9651;49.138;8.900;2023-05-10T13:38:38;24.60;99.90
19037;DHT22;9651;49.138;8.900;2023-05-10T13:42:40;24.40;99.90
19037;DHT22;9651;49.138;8.900;2023-05-10T13:46:45;24.20;99.90
19037;DHT22;9651;49.138;8.900;2023-05-10T13:50:47;23.90;99.90
19037;DHT22;9651;49.138;8.900;2023-05-10T13:54:49;23.30;99.90
19037;DHT22;9651;49.138;8.900;2023-05-10T13:58:52;23.20;99.90
19037;DHT22;9651;49.138;8.900;2023-05-10T14:02:55;23.40;99.90
19037;DHT22;9651;49.138;8.900;2023-05-10T14:06:58;23.30;99.90
19037;DHT22;9651;49.138;8.900;2023-05-10T14:11:00;23.60;99.90
19037;DHT22;9651;49.138;8.900;2023-05-10T14:15:02;23.30;99.90
19037;DHT22;9651;49.138;8.900;2023-05-10T14:19:07;23.30;99.90
19037;DHT22;9651;49.138;8.900;2023-05-10T14:23:09;23.40;99.90
19037;DHT22;9651;49.138;8.900;2023-05-10T14:27:11;23.40;99.90
19037;DHT22;9651;49.138;8.900;2023-05-10T14:31:14;23.10;99.90
19037;DHT22;9651;49.138;8.900;2023-05-10T14:35:18;23.00;99.90
19037;DHT22;9651;49.138;8.900;2023-05-10T14:39:20;22.60;99.90
19037;DHT22;9651;49.138;8.900;2023-05-10T14:43:23;22.00;99.90
19037;DHT22;9651;49.138;8.900;2023-05-10T14:47:25;22.20;99.90
19037;DHT22;9651;49.138;8.900;2023-05-10T14:51:28;22.30;99.90
19037;DHT22;9651;49.138;8.900;2023-05-10T14:55:30;21.70;99.90
19037;DHT22;9651;49.138;8.900;2023-05-10T14:59:32;21.60;99.90
19037;DHT22;9651;49.138;8.900;2023-05-10T15:03:34;21.50;99.90
19037;DHT22;9651;49.138;8.900;2023-05-10T15:07:37;21.50;99.90
19037;DHT22;9651;49.138;8.900;2023-05-10T15:11:39;21.50;99.90
19037;DHT22;9651;49.138;8.900;2023-05-10T15:15:41;21.50;99.90
19037;DHT22;9651;49.138;8.900;2023-05-10T15:19:43;21.40;99.90
19037;DHT22;9651;49.138;8.900;2023-05-10T15:23:46;21.50;99.90
19037;DHT22;9651;49.138;8.900;2023-05-10T15:27:48;21.90;99.90
19037;DHT22;9651;49.138;8.900;2023-05-10T15:31:50;21.90;99.90
19037;DHT22;9651;49.138;8.900;2023-05-10T15:35:52;21.90;99.90
19037;DHT22;9651;49.138;8.900;2023-05-10T15:39:56;21.80;99.90
19037;DHT22;9651;49.138;8.900;2023-05-10T15:44:04;21.80;99.90
19037;DHT22;9651;49.138;8.900;2023-05-10T15:48:06;21.70;99.90
19037;DHT22;9651;49.138;8.900;2023-05-10T15:52:07;21.80;99.90
19037;DHT22;9651;49.138;8.900;2023-05-10T15:56:11;21.60;99.90
19037;DHT22;9651;49.138;8.900;2023-05-10T16:00:13;21.70;99.90
19037;DHT22;9651;49.138;8.900;2023-05-10T16:04:15;21.70;99.90
19037;DHT22;9651;49.138;8.900;2023-05-10T16:08:17;21.70;99.90
19037;DHT22;9651;49.138;8.900;2023-05-10T16:12:21;21.70;99.90
19037;DHT22;9651;49.138;8.900;2023-05-10T16:16:23;21.70;99.90
19037;DHT22;9651;49.138;8.900;2023-05-10T16:20:25;22.00;99.90
19037;DHT22;9651;49.138;8.900;2023-05-10T16:24:27;22.20;99.90
19037;DHT22;9651;49.138;8.900;2023-05-10T16:28:31;22.20;99.90
19037;DHT22;9651;49.138;8.900;2023-05-10T16:32:33;22.40;99.90
19037;DHT22;9651;49.138;8.900;2023-05-10T16:36:34;22.10;99.90
19037;DHT22;9651;49.138;8.900;2023-05-10T16:40:36;22.20;99.90
19037;DHT22;9651;49.138;8.900;2023-05-10T16:44:40;22.00;99.90
19037;DHT22;9651;49.138;8.900;2023-05-10T16:48:42;21.60;99.90
19037;DHT22;9651;49.138;8.900;2023-05-10T16:52:44;21.30;99.90
19037;DHT22;9651;49.138;8.900;2023-05-10T16:56:46;20.70;99.90
19037;DHT22;9651;49.138;8.900;2023-05-10T17:00:50;20.50;99.90
19037;DHT22;9651;49.138;8.900;2023-05-10T17:04:52;20.30;99.90
19037;DHT22;9651;49.138;8.900;2023-05-10T17:08:59;20.20;99.90
19037;DHT22;9651;49.138;8.900;2023-05-10T17:13:01;19.90;99.90
19037;DHT22;9651;49.138;8.900;2023-05-10T17:17:05;19.70;99.90
19037;DHT22;9651;49.138;8.900;2023-05-10T17:21:07;19.70;99.90
19037;DHT22;9651;49.138;8.900;2023-05-10T17:25:10;19.60;99.90
19037;DHT22;9651;49.138;8.900;2023-05-10T17:29:12;19.40;99.90
19037;DHT22;9651;49.138;8.900;2023-05-10T17:33:17;19.10;99.90
19037;DHT22;9651;49.138;8.900;2023-05-10T17:37:18;18.90;99.90
19037;DHT22;9651;49.138;8.900;2023-05-10T17:41:20;18.60;99.90
19037;DHT22;9651;49.138;8.900;2023-05-10T17:45:22;18.40;99.90
19037;DHT22;9651;49.138;8.900;2023-05-10T17:49:26;18.40;99.90
19037;DHT22;9651;49.138;8.900;2023-05-10T17:53:29;18.20;99.90
19037;DHT22;9651;49.138;8.900;2023-05-10T17:57:31;18.00;99.90
19037;DHT22;9651;49.138;8.900;2023-05-10T18:01:33;17.80;99.90
19037;DHT22;9651;49.138;8.900;2023-05-10T18:05:37;17.70;99.90
19037;DHT22;9651;49.138;8.900;2023-05-10T18:09:39;17.50;99.90
19037;DHT22;9651;49.138;8.900;2023-05-10T18:13:41;17.40;99.90
19037;DHT22;9651;49.138;8.900;2023-05-10T18:17:43;17.10;99.90
19037;DHT22;9651;49.138;8.900;2023-05-10T18:21:47;16.90;99.90
19037;DHT22;9651;49.138;8.900;2023-05-10T18:25:49;16.80;99.90
19037;DHT22;9651;49.138;8.900;2023-05-10T18:29:51;16.70;99.90
19037;DHT22;9651;49.138;8.900;2023-05-10T18:33:53;16.60;99.90
19037;DHT22;9651;49.138;8.900;2023-05-10T18:37:56;16.50;99.90
19037;DHT22;9651;49.138;8.900;2023-05-10T18:41:59;16.40;99.90
19037;DHT22;9651;49.138;8.900;2023-05-10T18:46:04;16.40;99.90
19037;DHT22;9651;49.138;8.900;2023-05-10T18:50:07;16.30;99.90
19037;DHT22;9651;49.138;8.900;2023-05-10T18:54:10;16.20;99.90
19037;DHT22;9651;49.138;8.900;2023-05-10T18:58:13;16.00;99.90
19037;DHT22;9651;49.138;8.900;2023-05-10T19:02:15;15.90;99.90
19037;DHT22;9651;49.138;8.900;2023-05-10T19:06:17;15.90;99.90
19037;DHT22;9651;49.138;8.900;2023-05-10T19:10:20;15.70;99.90
19037;DHT22;9651;49.138;8.900;2023-05-10T19:14:22;15.50;99.90
19037;DHT22;9651;49.138;8.900;2023-05-10T19:18:25;15.40;99.90
19037;DHT22;9651;49.138;8.900;2023-05-10T19:22:27;15.40;99.90
19037;DHT22;9651;49.138;8.900;2023-05-10T19:26:30;15.30;99.90
19037;DHT22;9651;49.138;8.900;2023-05-10T19:30:32;15.20;99.90
19037;DHT22;9651;49.138;8.900;2023-05-10T19:34:34;15.00;99.90
19037;DHT22;9651;49.138;8.900;2023-05-10T19:38:36;14.90;99.90
19037;DHT22;9651;49.138;8.900;2023-05-10T19:42:39;14.80;99.90
19037;DHT22;9651;49.138;8.900;2023-05-10T19:46:41;14.70;99.90
19037;DHT22;9651;49.138;8.900;2023-05-10T19:50:43;14.60;99.90
19037;DHT22;9651;49.138;8.900;2023-05-10T19:54:45;14.40;99.90
19037;DHT22;9651;49.138;8.900;2023-05-10T19:58:49;14.40;99.90
19037;DHT22;9651;49.138;8.900;2023-05-10T20:02:50;14.30;99.90
19037;DHT22;9651;49.138;8.900;2023-05-10T20:06:52;14.40;99.90
19037;DHT22;9651;49.138;8.900;2023-05-10T20:10:54;14.30;99.90
19037;DHT22;9651;49.138;8.900;2023-05-10T20:14:59;14.20;99.90
19037;DHT22;9651;49.138;8.900;2023-05-10T20:19:01;14.20;99.90
19037;DHT22;9651;49.138;8.900;2023-05-10T20:23:03;14.20;99.90
19037;DHT22;9651;49.138;8.900;2023-05-10T20:27:05;14.10;99.90
19037;DHT22;9651;49.138;8.900;2023-05-10T20:31:08;14.10;99.90
19037;DHT22;9651;49.138;8.900;2023-05-10T20:35:11;14.00;99.90
19037;DHT22;9651;49.138;8.900;2023-05-10T20:39:13;14.00;99.90
19037;DHT22;9651;49.138;8.900;2023-05-10T20:43:15;14.00;99.90
19037;DHT22;9651;49.138;8.900;2023-05-10T20:47:19;14.00;99.90
19037;DHT22;9651;49.138;8.900;2023-05-10T20:51:23;13.90;99.90
19037;DHT22;9651;49.138;8.900;2023-05-10T20:55:25;13.90;99.90
19037;DHT22;9651;49.138;8.900;2023-05-10T20:59:27;13.70;99.90
19037;DHT22;9651;49.138;8.900;2023-05-10T21:03:30;13.60;99.90
19037;DHT22;9651;49.138;8.900;2023-05-10T21:07:32;13.60;99.90
19037;DHT22;9651;49.138;8.900;2023-05-10T21:11:34;13.60;99.90
19037;DHT22;9651;49.138;8.900;2023-05-10T21:15:37;13.50;99.90
19037;DHT22;9651;49.138;8.900;2023-05-10T21:19:41;13.50;99.90
19037;DHT22;9651;49.138;8.900;2023-05-10T21:23:45;13.40;99.90
19037;DHT22;9651;49.138;8.900;2023-05-10T21:27:47;13.20;99.90
19037;DHT22;9651;49.138;8.900;2023-05-10T21:31:48;13.20;99.90
19037;DHT22;9651;49.138;8.900;2023-05-10T21:35:52;13.20;99.90
19037;DHT22;9651;49.138;8.900;2023-05-10T21:39:54;13.30;99.90
19037;DHT22;9651;49.138;8.900;2023-05-10T21:43:57;13.30;99.90
19037;DHT22;9651;49.138;8.900;2023-05-10T21:47:59;13.20;99.90
19037;DHT22;9651;49.138;8.900;2023-05-10T21:52:02;13.10;99.90
19037;DHT22;9651;49.138;8.900;2023-05-10T21:56:04;13.00;99.90
19037;DHT22;9651;49.138;8.900;2023-05-10T22:00:08;13.00;99.90
19037;DHT22;9651;49.138;8.900;2023-05-10T22:04:12;13.00;99.90
19037;DHT22;9651;49.138;8.900;2023-05-10T22:08:15;13.10;99.90
19037;DHT22;9651;49.138;8.900;2023-05-10T22:12:17;13.10;99.90
19037;DHT22;9651;49.138;8.900;2023-05-10T22:16:19;13.10;99.90
19037;DHT22;9651;49.138;8.900;2023-05-10T22:20:21;13.10;99.90
19037;DHT22;9651;49.138;8.900;2023-05-10T22:24:24;13.10;99.90
19037;DHT22;9651;49.138;8.900;2023-05-10T22:28:27;13.10;99.90
19037;DHT22;9651;49.138;8.900;2023-05-10T22:32:30;13.10;99.90
19037;DHT22;9651;49.138;8.900;2023-05-10T22:36:32;13.00;99.90
19037;DHT22;9651;49.138;8.900;2023-05-10T22:40:36;12.90;99.90
19037;DHT22;9651;49.138;8.900;2023-05-10T22:44:38;12.90;99.90
19037;DHT22;9651;49.138;8.900;2023-05-10T22:48:41;12.80;99.90
19037;DHT22;9651;49.138;8.900;2023-05-10T22:52:43;12.70;99.90
19037;DHT22;9651;49.138;8.900;2023-05-10T22:56:46;12.70;99.90
19037;DHT22;9651;49.138;8.900;2023-05-10T23:00:49;12.70;99.90
19037;DHT22;9651;49.138;8.900;2023-05-10T23:04:51;12.70;99.90
19037;DHT22;9651;49.138;8.900;2023-05-10T23:08:54;12.70;99.90
19037;DHT22;9651;49.138;8.900;2023-05-10T23:12:58;12.60;99.90
19037;DHT22;9651;49.138;8.900;2023-05-10T23:17:00;12.60;99.90
19037;DHT22;9651;49.138;8.900;2023-05-10T23:21:02;12.60;99.90
19037;DHT22;9651;49.138;8.900;2023-05-10T23:25:05;12.60;99.90
19037;DHT22;9651;49.138;8.900;2023-05-10T23:29:08;12.60;99.90
19037;DHT22;9651;49.138;8.900;2023-05-10T23:33:10;12.60;99.90
19037;DHT22;9651;49.138;8.900;2023-05-10T23:37:14;12.50;99.90
19037;DHT22;9651;49.138;8.900;2023-05-10T23:41:16;12.60;99.90
19037;DHT22;9651;49.138;8.900;2023-05-10T23:45:19;12.60;99.90
19037;DHT22;9651;49.138;8.900;2023-05-10T23:49:21;12.60;99.90
19037;DHT22;9651;49.138;8.900;2023-05-10T23:53:23;12.60;99.90
19037;DHT22;9651;49.138;8.900;2023-05-10T23:57:25;12.60;99.90
